Airfield :
LOGIN :

Register | Disclaimer

   EN    FR    IT 

 










Legend :    VFR   Marginal VFR   IFR   Intensive IFR   Very Intensive IFR
Visi :
Ceiling :
>= 8 km
>= 3000ft
5 to 8 km
1000 to 3000 ft
1500m to 5 km
500 to 1000 ft
800 to 1500m
200 to 500 ft
< 800m
< 200 ft
Symbols :   Thunderstorms  Fog  Heavy snow  Heavy precipitations  Wind > 20 kt
SIGMETs :     Misc.  Thunderstorms  Icing  Turbulence  Mountain Waves  Volcanic Ashes






- Airport Elevation : 776 ft
- IATA code : RMS


ETAR - Ramstein Air Base

EXPIRED METARs :
  • 262356Z 00000KT 9999 BKN007 OVC065 01/01 A3013 RMK AO2A CIG 007V060 BKN V SCT SLP219 T00130013 10017 20011 55005 FZRANO $
  • 262341Z 00000KT 9999 BKN007 OVC060 01/01 A3014 RMK AO2A SLP222 FZRANO $

TAF TAF ETAR
Valid from the 26 at 18:00 until the 28 at 00:00 UTC


261800Z 2618/2724 VRB06KT 1600 BR OVC002 QNH3013INS
BECMG 2703/2704 VRB06KT 0800 FG OVC002 QNH3012INS
BECMG 2709/2710 VRB06KT 8000 BR FEW010 BKN080 QNH3010INS
BECMG 2718/2719 VRB06KT 5000 BR SCT010 QNH3012INS TX08/2714Z TN01/2705Z



MET'MAP, your aeronautical weather chart ! - Copyright ORBIFLY December 2007 - Disclaimer

ORBIFLY MET'MAP TEAM :

Programming & Development : Alexandra Zaïnal
Concept & original design : Baudouin d'Aumeries
Assistance for programming : Marc-Olivier Méhu
Technical & hardware support : Manuel Goepfert

Contact : metmap@orbifly.com




SOURCES & CREDITS :

   NOAA